sensor_id;sensor_type;location;lat;lon;timestamp;temperature;humidity
26623;DHT22;14254;50.968;5.366;2022-11-20T00:00:24;3.90;99.90
26623;DHT22;14254;50.968;5.366;2022-11-20T00:02:50;3.80;99.90
26623;DHT22;14254;50.968;5.366;2022-11-20T00:05:16;4.00;99.90
26623;DHT22;14254;50.968;5.366;2022-11-20T00:07:42;4.10;99.90
26623;DHT22;14254;50.968;5.366;2022-11-20T00:10:08;4.10;99.90
26623;DHT22;14254;50.968;5.366;2022-11-20T00:12:33;4.00;99.90
26623;DHT22;14254;50.968;5.366;2022-11-20T00:14:59;4.10;99.90
26623;DHT22;14254;50.968;5.366;2022-11-20T00:17:25;3.90;99.90
26623;DHT22;14254;50.968;5.366;2022-11-20T00:19:51;3.90;99.90
26623;DHT22;14254;50.968;5.366;2022-11-20T00:22:17;4.20;99.90
26623;DHT22;14254;50.968;5.366;2022-11-20T00:24:42;4.20;99.90
26623;DHT22;14254;50.968;5.366;2022-11-20T00:27:08;4.10;99.90
26623;DHT22;14254;50.968;5.366;2022-11-20T00:29:34;4.10;99.90
26623;DHT22;14254;50.968;5.366;2022-11-20T00:32:00;4.10;99.90
26623;DHT22;14254;50.968;5.366;2022-11-20T00:34:26;4.10;99.90
26623;DHT22;14254;50.968;5.366;2022-11-20T00:36:51;4.20;99.90
26623;DHT22;14254;50.968;5.366;2022-11-20T00:39:17;4.30;99.90
26623;DHT22;14254;50.968;5.366;2022-11-20T00:41:42;4.40;99.90
26623;DHT22;14254;50.968;5.366;2022-11-20T00:44:08;4.60;99.90
26623;DHT22;14254;50.968;5.366;2022-11-20T00:46:34;4.10;99.90
26623;DHT22;14254;50.968;5.366;2022-11-20T00:48:59;4.20;99.90
26623;DHT22;14254;50.968;5.366;2022-11-20T00:51:26;4.40;99.90
26623;DHT22;14254;50.968;5.366;2022-11-20T00:53:55;4.40;99.90
26623;DHT22;14254;50.968;5.366;2022-11-20T00:56:21;4.50;99.90
26623;DHT22;14254;50.968;5.366;2022-11-20T00:58:48;4.50;99.90
26623;DHT22;14254;50.968;5.366;2022-11-20T01:01:18;4.40;99.90
26623;DHT22;14254;50.968;5.366;2022-11-20T01:03:46;3.90;99.90
26623;DHT22;14254;50.968;5.366;2022-11-20T01:06:18;4.10;99.90
26623;DHT22;14254;50.968;5.366;2022-11-20T01:08:44;4.00;99.90
26623;DHT22;14254;50.968;5.366;2022-11-20T01:11:21;3.90;99.90
26623;DHT22;14254;50.968;5.366;2022-11-20T01:13:48;4.20;99.90
26623;DHT22;14254;50.968;5.366;2022-11-20T01:16:19;4.50;99.90
26623;DHT22;14254;50.968;5.366;2022-11-20T01:18:47;4.50;99.90
26623;DHT22;14254;50.968;5.366;2022-11-20T01:21:18;4.30;99.90
26623;DHT22;14254;50.968;5.366;2022-11-20T01:23:45;3.90;99.90
26623;DHT22;14254;50.968;5.366;2022-11-20T01:26:19;3.80;99.90
26623;DHT22;14254;50.968;5.366;2022-11-20T01:28:46;3.90;99.90
26623;DHT22;14254;50.968;5.366;2022-11-20T01:31:17;3.80;99.90
26623;DHT22;14254;50.968;5.366;2022-11-20T01:33:44;4.10;99.90
26623;DHT22;14254;50.968;5.366;2022-11-20T01:36:11;4.00;99.90
26623;DHT22;14254;50.968;5.366;2022-11-20T01:38:37;4.30;99.90
26623;DHT22;14254;50.968;5.366;2022-11-20T01:41:03;4.40;99.90
26623;DHT22;14254;50.968;5.366;2022-11-20T01:43:30;4.50;99.90
26623;DHT22;14254;50.968;5.366;2022-11-20T01:48:34;4.70;99.90
26623;DHT22;14254;50.968;5.366;2022-11-20T01:51:01;4.80;99.90
26623;DHT22;14254;50.968;5.366;2022-11-20T01:53:31;4.70;99.90
26623;DHT22;14254;50.968;5.366;2022-11-20T01:56:00;4.50;99.90
26623;DHT22;14254;50.968;5.366;2022-11-20T01:58:33;4.30;99.90
26623;DHT22;14254;50.968;5.366;2022-11-20T02:01:01;4.30;99.90
26623;DHT22;14254;50.968;5.366;2022-11-20T02:03:27;4.50;99.90
26623;DHT22;14254;50.968;5.366;2022-11-20T02:06:23;4.70;99.90
26623;DHT22;14254;50.968;5.366;2022-11-20T02:08:50;4.60;99.90
26623;DHT22;14254;50.968;5.366;2022-11-20T02:11:16;4.40;99.90
26623;DHT22;14254;50.968;5.366;2022-11-20T02:13:42;4.50;99.90
26623;DHT22;14254;50.968;5.366;2022-11-20T02:18:48;4.50;99.90
26623;DHT22;14254;50.968;5.366;2022-11-20T02:21:56;4.40;99.90
26623;DHT22;14254;50.968;5.366;2022-11-20T02:24:23;4.50;99.90
26623;DHT22;14254;50.968;5.366;2022-11-20T02:26:53;4.60;99.90
26623;DHT22;14254;50.968;5.366;2022-11-20T02:29:26;4.60;99.90
26623;DHT22;14254;50.968;5.366;2022-11-20T02:31:54;4.40;99.90
26623;DHT22;14254;50.968;5.366;2022-11-20T02:34:20;4.20;99.90
26623;DHT22;14254;50.968;5.366;2022-11-20T02:36:46;4.20;99.90
26623;DHT22;14254;50.968;5.366;2022-11-20T02:39:15;4.00;99.90
26623;DHT22;14254;50.968;5.366;2022-11-20T02:41:42;4.00;99.90
26623;DHT22;14254;50.968;5.366;2022-11-20T02:44:08;4.00;99.90
26623;DHT22;14254;50.968;5.366;2022-11-20T02:46:34;3.90;99.90
26623;DHT22;14254;50.968;5.366;2022-11-20T02:49:04;3.80;99.90
26623;DHT22;14254;50.968;5.366;2022-11-20T02:51:30;3.70;99.90
26623;DHT22;14254;50.968;5.366;2022-11-20T02:53:56;3.60;99.90
26623;DHT22;14254;50.968;5.366;2022-11-20T02:56:22;3.70;99.90
26623;DHT22;14254;50.968;5.366;2022-11-20T02:58:48;3.80;99.90
26623;DHT22;14254;50.968;5.366;2022-11-20T03:01:14;3.70;99.90
26623;DHT22;14254;50.968;5.366;2022-11-20T03:03:39;3.80;99.90
26623;DHT22;14254;50.968;5.366;2022-11-20T03:06:05;3.90;99.90
26623;DHT22;14254;50.968;5.366;2022-11-20T03:08:32;4.20;99.90
26623;DHT22;14254;50.968;5.366;2022-11-20T03:11:06;4.20;99.90
26623;DHT22;14254;50.968;5.366;2022-11-20T03:13:33;4.30;99.90
26623;DHT22;14254;50.968;5.366;2022-11-20T03:16:05;4.40;99.90
26623;DHT22;14254;50.968;5.366;2022-11-20T03:18:31;4.50;99.90
26623;DHT22;14254;50.968;5.366;2022-11-20T03:20:58;4.50;99.90
26623;DHT22;14254;50.968;5.366;2022-11-20T03:23:24;4.50;99.90
26623;DHT22;14254;50.968;5.366;2022-11-20T03:25:50;4.40;99.90
26623;DHT22;14254;50.968;5.366;2022-11-20T03:28:15;4.50;99.90
26623;DHT22;14254;50.968;5.366;2022-11-20T03:30:41;4.40;99.90
26623;DHT22;14254;50.968;5.366;2022-11-20T03:33:07;4.30;99.90
26623;DHT22;14254;50.968;5.366;2022-11-20T03:35:32;4.50;99.90
26623;DHT22;14254;50.968;5.366;2022-11-20T03:37:58;4.60;99.90
26623;DHT22;14254;50.968;5.366;2022-11-20T03:40:24;4.70;99.90
26623;DHT22;14254;50.968;5.366;2022-11-20T03:42:49;4.90;99.90
26623;DHT22;14254;50.968;5.366;2022-11-20T03:45:18;5.00;99.90
26623;DHT22;14254;50.968;5.366;2022-11-20T03:47:44;4.70;99.90
26623;DHT22;14254;50.968;5.366;2022-11-20T03:50:12;4.60;99.90
26623;DHT22;14254;50.968;5.366;2022-11-20T03:52:39;4.70;99.90
26623;DHT22;14254;50.968;5.366;2022-11-20T03:55:06;4.80;99.90
26623;DHT22;14254;50.968;5.366;2022-11-20T03:57:31;4.90;99.90
26623;DHT22;14254;50.968;5.366;2022-11-20T03:59:57;4.90;99.90
26623;DHT22;14254;50.968;5.366;2022-11-20T04:02:23;4.90;99.90
26623;DHT22;14254;50.968;5.366;2022-11-20T04:04:48;4.80;99.90
26623;DHT22;14254;50.968;5.366;2022-11-20T04:07:14;4.80;99.90
26623;DHT22;14254;50.968;5.366;2022-11-20T04:09:39;4.90;99.90
26623;DHT22;14254;50.968;5.366;2022-11-20T04:12:05;4.90;99.90
26623;DHT22;14254;50.968;5.366;2022-11-20T04:14:31;5.00;99.90
26623;DHT22;14254;50.968;5.366;2022-11-20T04:16:56;5.00;99.90
26623;DHT22;14254;50.968;5.366;2022-11-20T04:19:22;5.00;99.90
26623;DHT22;14254;50.968;5.366;2022-11-20T04:21:48;5.00;99.90
26623;DHT22;14254;50.968;5.366;2022-11-20T04:24:13;4.90;99.90
26623;DHT22;14254;50.968;5.366;2022-11-20T04:26:39;4.80;99.90
26623;DHT22;14254;50.968;5.366;2022-11-20T04:29:05;4.90;99.90
26623;DHT22;14254;50.968;5.366;2022-11-20T04:31:33;4.90;99.90
26623;DHT22;14254;50.968;5.366;2022-11-20T04:34:03;4.90;99.90
26623;DHT22;14254;50.968;5.366;2022-11-20T04:36:30;5.00;99.90
26623;DHT22;14254;50.968;5.366;2022-11-20T04:39:01;4.70;99.90
26623;DHT22;14254;50.968;5.366;2022-11-20T04:41:32;4.50;99.90
26623;DHT22;14254;50.968;5.366;2022-11-20T04:44:00;4.60;99.90
26623;DHT22;14254;50.968;5.366;2022-11-20T04:46:33;4.80;99.90
26623;DHT22;14254;50.968;5.366;2022-11-20T04:48:59;4.90;99.90
26623;DHT22;14254;50.968;5.366;2022-11-20T04:51:25;4.90;99.90
26623;DHT22;14254;50.968;5.366;2022-11-20T04:53:50;4.90;99.90
26623;DHT22;14254;50.968;5.366;2022-11-20T04:56:16;4.80;99.90
26623;DHT22;14254;50.968;5.366;2022-11-20T04:58:42;4.70;99.90
26623;DHT22;14254;50.968;5.366;2022-11-20T05:03:37;4.60;99.90
26623;DHT22;14254;50.968;5.366;2022-11-20T05:06:05;4.70;99.90
26623;DHT22;14254;50.968;5.366;2022-11-20T05:08:31;4.70;99.90
26623;DHT22;14254;50.968;5.366;2022-11-20T05:11:09;4.90;99.90
26623;DHT22;14254;50.968;5.366;2022-11-20T05:13:35;4.80;99.90
26623;DHT22;14254;50.968;5.366;2022-11-20T05:16:07;4.80;99.90
26623;DHT22;14254;50.968;5.366;2022-11-20T05:18:34;4.70;99.90
26623;DHT22;14254;50.968;5.366;2022-11-20T05:21:00;4.70;99.90
26623;DHT22;14254;50.968;5.366;2022-11-20T05:23:27;4.80;99.90
26623;DHT22;14254;50.968;5.366;2022-11-20T05:25:55;4.80;99.90
26623;DHT22;14254;50.968;5.366;2022-11-20T05:28:21;4.70;99.90
26623;DHT22;14254;50.968;5.366;2022-11-20T05:30:47;4.70;99.90
26623;DHT22;14254;50.968;5.366;2022-11-20T05:33:13;4.70;99.90
26623;DHT22;14254;50.968;5.366;2022-11-20T05:35:39;4.60;99.90
26623;DHT22;14254;50.968;5.366;2022-11-20T05:38:04;4.70;99.90
26623;DHT22;14254;50.968;5.366;2022-11-20T05:40:30;4.60;99.90
26623;DHT22;14254;50.968;5.366;2022-11-20T05:42:55;4.80;99.90
26623;DHT22;14254;50.968;5.366;2022-11-20T05:45:21;4.80;99.90
26623;DHT22;14254;50.968;5.366;2022-11-20T05:47:47;4.90;99.90
26623;DHT22;14254;50.968;5.366;2022-11-20T05:50:13;4.80;99.90
26623;DHT22;14254;50.968;5.366;2022-11-20T05:52:40;4.80;99.90
26623;DHT22;14254;50.968;5.366;2022-11-20T05:55:06;4.80;99.90
26623;DHT22;14254;50.968;5.366;2022-11-20T05:57:32;4.80;99.90
26623;DHT22;14254;50.968;5.366;2022-11-20T05:59:57;4.80;99.90
26623;DHT22;14254;50.968;5.366;2022-11-20T06:02:23;5.00;99.90
26623;DHT22;14254;50.968;5.366;2022-11-20T06:04:49;4.80;99.90
26623;DHT22;14254;50.968;5.366;2022-11-20T06:07:14;4.80;99.90
26623;DHT22;14254;50.968;5.366;2022-11-20T06:09:40;5.00;99.90
26623;DHT22;14254;50.968;5.366;2022-11-20T06:12:06;4.80;99.90
26623;DHT22;14254;50.968;5.366;2022-11-20T06:14:33;4.80;99.90
26623;DHT22;14254;50.968;5.366;2022-11-20T06:16:59;4.70;99.90
26623;DHT22;14254;50.968;5.366;2022-11-20T06:19:24;4.60;99.90
26623;DHT22;14254;50.968;5.366;2022-11-20T06:21:50;4.40;99.90
26623;DHT22;14254;50.968;5.366;2022-11-20T06:24:16;4.50;99.90
26623;DHT22;14254;50.968;5.366;2022-11-20T06:26:42;4.80;99.90
26623;DHT22;14254;50.968;5.366;2022-11-20T06:29:08;4.90;99.90
26623;DHT22;14254;50.968;5.366;2022-11-20T06:31:34;4.90;99.90
26623;DHT22;14254;50.968;5.366;2022-11-20T06:34:03;4.60;99.90
26623;DHT22;14254;50.968;5.366;2022-11-20T06:36:29;4.60;99.90
26623;DHT22;14254;50.968;5.366;2022-11-20T06:38:55;4.70;99.90
26623;DHT22;14254;50.968;5.366;2022-11-20T06:41:22;4.70;99.90
26623;DHT22;14254;50.968;5.366;2022-11-20T06:43:48;4.80;99.90
26623;DHT22;14254;50.968;5.366;2022-11-20T06:46:15;4.90;99.90
26623;DHT22;14254;50.968;5.366;2022-11-20T06:48:43;4.90;99.90
26623;DHT22;14254;50.968;5.366;2022-11-20T06:51:09;4.90;99.90
26623;DHT22;14254;50.968;5.366;2022-11-20T06:53:35;5.00;99.90
26623;DHT22;14254;50.968;5.366;2022-11-20T06:56:01;5.00;99.90
26623;DHT22;14254;50.968;5.366;2022-11-20T06:58:28;4.90;99.90
26623;DHT22;14254;50.968;5.366;2022-11-20T07:00:57;5.00;99.90
26623;DHT22;14254;50.968;5.366;2022-11-20T07:03:23;5.00;99.90
26623;DHT22;14254;50.968;5.366;2022-11-20T07:05:49;5.10;99.90
26623;DHT22;14254;50.968;5.366;2022-11-20T07:08:14;5.00;99.90
26623;DHT22;14254;50.968;5.366;2022-11-20T07:10:40;5.10;99.90
26623;DHT22;14254;50.968;5.366;2022-11-20T07:13:05;5.10;99.90
26623;DHT22;14254;50.968;5.366;2022-11-20T07:15:32;5.10;99.90
26623;DHT22;14254;50.968;5.366;2022-11-20T07:18:01;5.20;99.90
26623;DHT22;14254;50.968;5.366;2022-11-20T07:20:27;5.20;99.90
26623;DHT22;14254;50.968;5.366;2022-11-20T07:22:54;5.20;99.90
26623;DHT22;14254;50.968;5.366;2022-11-20T07:25:27;5.30;99.90
26623;DHT22;14254;50.968;5.366;2022-11-20T07:27:59;5.20;99.90
26623;DHT22;14254;50.968;5.366;2022-11-20T07:30:29;5.30;99.90
26623;DHT22;14254;50.968;5.366;2022-11-20T07:32:55;5.20;99.90
26623;DHT22;14254;50.968;5.366;2022-11-20T07:35:25;5.30;99.90
26623;DHT22;14254;50.968;5.366;2022-11-20T07:37:50;5.30;99.90
26623;DHT22;14254;50.968;5.366;2022-11-20T07:40:17;5.30;99.90
26623;DHT22;14254;50.968;5.366;2022-11-20T07:42:50;5.30;99.90
26623;DHT22;14254;50.968;5.366;2022-11-20T07:45:17;5.30;99.90
26623;DHT22;14254;50.968;5.366;2022-11-20T07:47:43;5.30;99.90
26623;DHT22;14254;50.968;5.366;2022-11-20T07:50:10;5.40;99.90
26623;DHT22;14254;50.968;5.366;2022-11-20T07:52:35;5.50;99.90
26623;DHT22;14254;50.968;5.366;2022-11-20T07:55:01;5.60;99.90
26623;DHT22;14254;50.968;5.366;2022-11-20T07:57:27;5.70;99.90
26623;DHT22;14254;50.968;5.366;2022-11-20T07:59:52;5.70;99.90
26623;DHT22;14254;50.968;5.366;2022-11-20T08:02:18;5.70;99.90
26623;DHT22;14254;50.968;5.366;2022-11-20T08:04:43;5.70;99.90
26623;DHT22;14254;50.968;5.366;2022-11-20T08:07:09;5.80;99.90
26623;DHT22;14254;50.968;5.366;2022-11-20T08:09:35;5.90;99.90
26623;DHT22;14254;50.968;5.366;2022-11-20T08:12:00;6.10;99.90
26623;DHT22;14254;50.968;5.366;2022-11-20T08:14:44;6.10;99.90
26623;DHT22;14254;50.968;5.366;2022-11-20T08:17:10;6.20;99.90
26623;DHT22;14254;50.968;5.366;2022-11-20T08:19:35;6.20;99.90
26623;DHT22;14254;50.968;5.366;2022-11-20T08:22:01;6.30;99.90
26623;DHT22;14254;50.968;5.366;2022-11-20T08:24:27;6.30;99.90
26623;DHT22;14254;50.968;5.366;2022-11-20T08:26:52;6.30;99.90
26623;DHT22;14254;50.968;5.366;2022-11-20T08:29:18;6.30;99.90
26623;DHT22;14254;50.968;5.366;2022-11-20T08:31:44;6.30;99.90
26623;DHT22;14254;50.968;5.366;2022-11-20T08:34:10;6.40;99.90
26623;DHT22;14254;50.968;5.366;2022-11-20T08:36:36;6.30;99.90
26623;DHT22;14254;50.968;5.366;2022-11-20T08:39:02;6.20;99.90
26623;DHT22;14254;50.968;5.366;2022-11-20T08:41:29;6.20;99.90
26623;DHT22;14254;50.968;5.366;2022-11-20T08:44:03;6.30;99.90
26623;DHT22;14254;50.968;5.366;2022-11-20T08:46:35;6.40;99.90
26623;DHT22;14254;50.968;5.366;2022-11-20T08:49:05;6.40;99.90
26623;DHT22;14254;50.968;5.366;2022-11-20T08:51:31;6.30;99.90
26623;DHT22;14254;50.968;5.366;2022-11-20T08:53:57;6.30;99.90
26623;DHT22;14254;50.968;5.366;2022-11-20T08:56:23;6.30;99.90
26623;DHT22;14254;50.968;5.366;2022-11-20T08:58:51;6.30;99.90
26623;DHT22;14254;50.968;5.366;2022-11-20T09:01:20;6.20;99.90
26623;DHT22;14254;50.968;5.366;2022-11-20T09:03:46;6.40;99.90
26623;DHT22;14254;50.968;5.366;2022-11-20T09:06:13;6.50;99.90
26623;DHT22;14254;50.968;5.366;2022-11-20T09:08:39;6.70;99.90
26623;DHT22;14254;50.968;5.366;2022-11-20T09:11:05;6.90;99.90
26623;DHT22;14254;50.968;5.366;2022-11-20T09:13:32;7.00;99.90
26623;DHT22;14254;50.968;5.366;2022-11-20T09:16:00;7.20;99.90
26623;DHT22;14254;50.968;5.366;2022-11-20T09:18:28;7.30;99.90
26623;DHT22;14254;50.968;5.366;2022-11-20T09:20:58;7.40;99.90
26623;DHT22;14254;50.968;5.366;2022-11-20T09:23:24;7.40;99.90
26623;DHT22;14254;50.968;5.366;2022-11-20T09:25:50;7.40;99.90
26623;DHT22;14254;50.968;5.366;2022-11-20T09:28:16;7.50;99.90
26623;DHT22;14254;50.968;5.366;2022-11-20T09:30:44;7.60;99.90
26623;DHT22;14254;50.968;5.366;2022-11-20T09:33:09;7.50;99.90
26623;DHT22;14254;50.968;5.366;2022-11-20T09:35:35;7.50;99.90
26623;DHT22;14254;50.968;5.366;2022-11-20T09:38:05;7.60;99.90
26623;DHT22;14254;50.968;5.366;2022-11-20T09:40:31;7.70;99.90
26623;DHT22;14254;50.968;5.366;2022-11-20T09:43:15;7.80;99.90
26623;DHT22;14254;50.968;5.366;2022-11-20T09:46:07;7.80;99.90
26623;DHT22;14254;50.968;5.366;2022-11-20T09:54:22;8.00;99.90
26623;DHT22;14254;50.968;5.366;2022-11-20T09:57:01;8.00;99.90
26623;DHT22;14254;50.968;5.366;2022-11-20T09:59:43;8.10;99.90
26623;DHT22;14254;50.968;5.366;2022-11-20T10:08:07;8.20;99.90
26623;DHT22;14254;50.968;5.366;2022-11-20T10:10:47;8.20;99.90
26623;DHT22;14254;50.968;5.366;2022-11-20T10:16:32;8.30;99.90
26623;DHT22;14254;50.968;5.366;2022-11-20T10:22:09;8.20;99.90
26623;DHT22;14254;50.968;5.366;2022-11-20T10:24:52;8.10;99.90
26623;DHT22;14254;50.968;5.366;2022-11-20T10:30:23;8.20;99.90
26623;DHT22;14254;50.968;5.366;2022-11-20T10:33:05;8.00;99.90
26623;DHT22;14254;50.968;5.366;2022-11-20T10:35:35;8.10;99.90
26623;DHT22;14254;50.968;5.366;2022-11-20T10:38:31;8.00;99.90
26623;DHT22;14254;50.968;5.366;2022-11-20T10:40:59;8.10;99.90
26623;DHT22;14254;50.968;5.366;2022-11-20T10:43:44;8.30;99.90
26623;DHT22;14254;50.968;5.366;2022-11-20T10:46:17;8.20;99.90
26623;DHT22;14254;50.968;5.366;2022-11-20T10:48:45;8.30;99.90
26623;DHT22;14254;50.968;5.366;2022-11-20T10:51:37;8.30;99.90
26623;DHT22;14254;50.968;5.366;2022-11-20T10:57:07;8.50;99.90
26623;DHT22;14254;50.968;5.366;2022-11-20T11:00:05;8.60;99.90
26623;DHT22;14254;50.968;5.366;2022-11-20T11:02:35;8.50;99.90
26623;DHT22;14254;50.968;5.366;2022-11-20T11:07:44;8.40;99.90
26623;DHT22;14254;50.968;5.366;2022-11-20T11:10:18;8.50;99.90
26623;DHT22;14254;50.968;5.366;2022-11-20T11:12:48;8.70;99.90
26623;DHT22;14254;50.968;5.366;2022-11-20T11:15:37;8.90;99.90
26623;DHT22;14254;50.968;5.366;2022-11-20T11:18:03;9.00;99.90
26623;DHT22;14254;50.968;5.366;2022-11-20T11:20:29;9.00;99.90
26623;DHT22;14254;50.968;5.366;2022-11-20T11:22:57;8.90;99.90
26623;DHT22;14254;50.968;5.366;2022-11-20T11:27:54;9.10;99.90
26623;DHT22;14254;50.968;5.366;2022-11-20T11:30:22;9.30;99.90
26623;DHT22;14254;50.968;5.366;2022-11-20T11:32:48;9.30;99.90
26623;DHT22;14254;50.968;5.366;2022-11-20T11:35:24;9.10;99.90
26623;DHT22;14254;50.968;5.366;2022-11-20T11:37:51;9.20;99.90
26623;DHT22;14254;50.968;5.366;2022-11-20T11:40:19;9.30;99.90
26623;DHT22;14254;50.968;5.366;2022-11-20T11:42:57;9.40;99.90
26623;DHT22;14254;50.968;5.366;2022-11-20T11:45:24;9.60;99.90
26623;DHT22;14254;50.968;5.366;2022-11-20T11:47:51;9.50;99.90
26623;DHT22;14254;50.968;5.366;2022-11-20T11:50:23;9.40;99.90
26623;DHT22;14254;50.968;5.366;2022-11-20T11:55:38;9.20;99.90
26623;DHT22;14254;50.968;5.366;2022-11-20T11:58:16;9.30;99.90
26623;DHT22;14254;50.968;5.366;2022-11-20T12:01:17;9.60;99.90
26623;DHT22;14254;50.968;5.366;2022-11-20T12:04:04;9.80;99.90
26623;DHT22;14254;50.968;5.366;2022-11-20T12:06:34;10.10;99.90
26623;DHT22;14254;50.968;5.366;2022-11-20T12:09:12;10.30;99.90
26623;DHT22;14254;50.968;5.366;2022-11-20T12:11:49;10.50;99.90
26623;DHT22;14254;50.968;5.366;2022-11-20T12:16:50;11.00;99.90
26623;DHT22;14254;50.968;5.366;2022-11-20T12:19:18;11.10;99.90
26623;DHT22;14254;50.968;5.366;2022-11-20T12:22:04;11.10;99.90
26623;DHT22;14254;50.968;5.366;2022-11-20T12:32:27;11.40;99.90
26623;DHT22;14254;50.968;5.366;2022-11-20T12:51:06;11.40;99.90
26623;DHT22;14254;50.968;5.366;2022-11-20T13:06:54;11.50;99.90
26623;DHT22;14254;50.968;5.366;2022-11-20T13:09:20;11.50;99.90
26623;DHT22;14254;50.968;5.366;2022-11-20T13:12:05;11.30;99.90
26623;DHT22;14254;50.968;5.366;2022-11-20T13:17:18;10.70;99.90
26623;DHT22;14254;50.968;5.366;2022-11-20T13:19:56;10.40;99.90
26623;DHT22;14254;50.968;5.366;2022-11-20T13:22:28;10.30;99.90
26623;DHT22;14254;50.968;5.366;2022-11-20T13:24:54;10.20;99.90
26623;DHT22;14254;50.968;5.366;2022-11-20T13:27:23;9.80;99.90
26623;DHT22;14254;50.968;5.366;2022-11-20T13:30:14;9.50;99.90
26623;DHT22;14254;50.968;5.366;2022-11-20T13:38:10;9.10;99.90
26623;DHT22;14254;50.968;5.366;2022-11-20T13:40:58;9.00;99.90
26623;DHT22;14254;50.968;5.366;2022-11-20T13:43:41;9.00;99.90
26623;DHT22;14254;50.968;5.366;2022-11-20T13:46:09;8.80;99.90
26623;DHT22;14254;50.968;5.366;2022-11-20T13:48:46;8.80;99.90
26623;DHT22;14254;50.968;5.366;2022-11-20T14:02:35;8.40;99.90
26623;DHT22;14254;50.968;5.366;2022-11-20T14:05:01;8.50;99.90
26623;DHT22;14254;50.968;5.366;2022-11-20T14:07:35;8.50;99.90
26623;DHT22;14254;50.968;5.366;2022-11-20T14:10:02;8.50;99.90
26623;DHT22;14254;50.968;5.366;2022-11-20T14:12:30;8.40;99.90
26623;DHT22;14254;50.968;5.366;2022-11-20T14:14:56;8.40;99.90
26623;DHT22;14254;50.968;5.366;2022-11-20T14:17:31;8.30;99.90
26623;DHT22;14254;50.968;5.366;2022-11-20T14:20:06;8.40;99.90
26623;DHT22;14254;50.968;5.366;2022-11-20T14:22:36;8.30;99.90
26623;DHT22;14254;50.968;5.366;2022-11-20T14:25:04;8.20;99.90
26623;DHT22;14254;50.968;5.366;2022-11-20T14:27:36;8.30;99.90
26623;DHT22;14254;50.968;5.366;2022-11-20T14:30:03;8.30;99.90
26623;DHT22;14254;50.968;5.366;2022-11-20T14:32:30;8.20;99.90
26623;DHT22;14254;50.968;5.366;2022-11-20T14:34:59;8.20;99.90
26623;DHT22;14254;50.968;5.366;2022-11-20T14:37:29;8.10;99.90
26623;DHT22;14254;50.968;5.366;2022-11-20T14:39:57;8.00;99.90
26623;DHT22;14254;50.968;5.366;2022-11-20T14:42:28;8.10;99.90
26623;DHT22;14254;50.968;5.366;2022-11-20T14:44:56;8.10;99.90
26623;DHT22;14254;50.968;5.366;2022-11-20T14:47:25;7.90;99.90
26623;DHT22;14254;50.968;5.366;2022-11-20T14:49:53;7.90;99.90
26623;DHT22;14254;50.968;5.366;2022-11-20T14:52:24;7.80;99.90
26623;DHT22;14254;50.968;5.366;2022-11-20T14:54:52;7.70;99.90
26623;DHT22;14254;50.968;5.366;2022-11-20T14:57:34;7.70;99.90
26623;DHT22;14254;50.968;5.366;2022-11-20T15:02:43;7.80;99.90
26623;DHT22;14254;50.968;5.366;2022-11-20T15:05:09;8.00;99.90
26623;DHT22;14254;50.968;5.366;2022-11-20T15:07:37;7.90;99.90
26623;DHT22;14254;50.968;5.366;2022-11-20T15:12:35;7.90;99.90
26623;DHT22;14254;50.968;5.366;2022-11-20T15:15:03;8.00;99.90
26623;DHT22;14254;50.968;5.366;2022-11-20T15:17:31;8.00;99.90
26623;DHT22;14254;50.968;5.366;2022-11-20T15:19:57;8.00;99.90
26623;DHT22;14254;50.968;5.366;2022-11-20T15:22:23;8.00;99.90
26623;DHT22;14254;50.968;5.366;2022-11-20T15:24:48;8.00;99.90
26623;DHT22;14254;50.968;5.366;2022-11-20T15:27:14;8.00;99.90
26623;DHT22;14254;50.968;5.366;2022-11-20T15:29:41;8.10;99.90
26623;DHT22;14254;50.968;5.366;2022-11-20T15:32:08;8.00;99.90
26623;DHT22;14254;50.968;5.366;2022-11-20T15:34:33;8.10;99.90
26623;DHT22;14254;50.968;5.366;2022-11-20T15:36:59;8.10;99.90
26623;DHT22;14254;50.968;5.366;2022-11-20T15:39:25;8.20;99.90
26623;DHT22;14254;50.968;5.366;2022-11-20T15:41:50;8.10;99.90
26623;DHT22;14254;50.968;5.366;2022-11-20T15:44:16;8.10;99.90
26623;DHT22;14254;50.968;5.366;2022-11-20T15:46:42;8.10;99.90
26623;DHT22;14254;50.968;5.366;2022-11-20T15:49:14;8.20;99.90
26623;DHT22;14254;50.968;5.366;2022-11-20T15:51:46;8.10;99.90
26623;DHT22;14254;50.968;5.366;2022-11-20T15:54:17;8.10;99.90
26623;DHT22;14254;50.968;5.366;2022-11-20T15:56:45;8.10;99.90
26623;DHT22;14254;50.968;5.366;2022-11-20T15:59:12;8.10;99.90
26623;DHT22;14254;50.968;5.366;2022-11-20T16:01:40;8.20;99.90
26623;DHT22;14254;50.968;5.366;2022-11-20T16:04:10;8.00;99.90
26623;DHT22;14254;50.968;5.366;2022-11-20T16:06:36;8.10;99.90
26623;DHT22;14254;50.968;5.366;2022-11-20T16:09:02;8.20;99.90
26623;DHT22;14254;50.968;5.366;2022-11-20T16:11:28;8.30;99.90
26623;DHT22;14254;50.968;5.366;2022-11-20T16:13:53;8.30;99.90
26623;DHT22;14254;50.968;5.366;2022-11-20T16:16:38;8.30;99.90
26623;DHT22;14254;50.968;5.366;2022-11-20T16:19:06;8.40;99.90
26623;DHT22;14254;50.968;5.366;2022-11-20T16:21:31;8.30;99.90
26623;DHT22;14254;50.968;5.366;2022-11-20T16:24:02;8.40;99.90
26623;DHT22;14254;50.968;5.366;2022-11-20T16:26:29;8.50;99.90
26623;DHT22;14254;50.968;5.366;2022-11-20T16:28:55;8.50;99.90
26623;DHT22;14254;50.968;5.366;2022-11-20T16:31:21;8.50;99.90
26623;DHT22;14254;50.968;5.366;2022-11-20T16:33:55;8.60;99.90
26623;DHT22;14254;50.968;5.366;2022-11-20T16:36:22;8.60;99.90
26623;DHT22;14254;50.968;5.366;2022-11-20T16:38:56;8.60;99.90
26623;DHT22;14254;50.968;5.366;2022-11-20T16:41:22;8.60;99.90
26623;DHT22;14254;50.968;5.366;2022-11-20T16:43:50;8.70;99.90
26623;DHT22;14254;50.968;5.366;2022-11-20T16:46:21;8.70;99.90
26623;DHT22;14254;50.968;5.366;2022-11-20T16:49:01;8.70;99.90
26623;DHT22;14254;50.968;5.366;2022-11-20T16:51:29;8.80;99.90
26623;DHT22;14254;50.968;5.366;2022-11-20T16:53:55;8.90;99.90
26623;DHT22;14254;50.968;5.366;2022-11-20T16:56:24;8.90;99.90
26623;DHT22;14254;50.968;5.366;2022-11-20T16:58:50;8.90;99.90
26623;DHT22;14254;50.968;5.366;2022-11-20T17:01:18;8.90;99.90
26623;DHT22;14254;50.968;5.366;2022-11-20T17:03:46;8.90;99.90
26623;DHT22;14254;50.968;5.366;2022-11-20T17:06:19;8.80;99.90
26623;DHT22;14254;50.968;5.366;2022-11-20T17:08:46;8.50;99.90
26623;DHT22;14254;50.968;5.366;2022-11-20T17:11:14;8.50;99.90
26623;DHT22;14254;50.968;5.366;2022-11-20T17:13:40;8.60;99.90
26623;DHT22;14254;50.968;5.366;2022-11-20T17:16:18;8.80;99.90
26623;DHT22;14254;50.968;5.366;2022-11-20T17:18:44;8.90;99.90
26623;DHT22;14254;50.968;5.366;2022-11-20T17:21:10;8.90;99.90
26623;DHT22;14254;50.968;5.366;2022-11-20T17:23:39;9.00;99.90
26623;DHT22;14254;50.968;5.366;2022-11-20T17:26:21;9.20;99.90
26623;DHT22;14254;50.968;5.366;2022-11-20T17:28:56;9.00;99.90
26623;DHT22;14254;50.968;5.366;2022-11-20T17:31:22;8.90;99.90
26623;DHT22;14254;50.968;5.366;2022-11-20T17:33:48;8.80;99.90
26623;DHT22;14254;50.968;5.366;2022-11-20T17:36:15;8.80;99.90
26623;DHT22;14254;50.968;5.366;2022-11-20T17:38:42;8.80;99.90